Time;durP1;ratioP1;P1;durP2;ratioP2;P2;SDS_P1;SDS_P2;PMS_P1;PMS_P2;Temp;Humidity;BMP_temperature;BMP_pressure;BME280_temperature;BME280_humidity;BME280_pressure;Samples;Min_cycle;Max_cycle;Signal;HPM_P1;HPM_P2
2022/10/19 00:01:45;;;;;;;756.10;415.45;;;;;;;;;;5095481;28;20024;-65
2022/10/19 00:04:11;;;;;;;756.47;393.40;;;;;;;;;;5095076;28;20031;-66
2022/10/19 00:06:38;;;;;;;751.58;389.13;;;;;;;;;;5094123;28;20024;-66
2022/10/19 00:09:06;;;;;;;738.10;414.83;;;;;;;;;;5095410;28;20464;-67
2022/10/19 00:11:34;;;;;;;760.13;397.67;;;;;;;;;;5094893;28;20387;-66
2022/10/19 00:14:00;;;;;;;769.75;428.50;;;;;;;;;;5095179;28;20487;-66
2022/10/19 00:16:28;;;;;;;759.40;425.67;;;;;;;;;;5095277;28;20103;-66
2022/10/19 00:18:58;;;;;;;762.20;417.85;;;;;;;;;;5093374;28;20068;-66
2022/10/19 00:21:25;;;;;;;803.63;460.30;;;;;;;;;;5093815;28;20028;-66
2022/10/19 00:23:51;;;;;;;799.08;446.08;;;;;;;;;;5095036;28;20028;-66
2022/10/19 00:26:17;;;;;;;798.40;419.48;;;;;;;;;;5094503;28;20020;-66
2022/10/19 00:28:43;;;;;;;818.95;451.80;;;;;;;;;;5095240;28;20128;-66
2022/10/19 00:31:10;;;;;;;824.53;439.15;;;;;;;;;;5094904;28;20020;-66
2022/10/19 00:33:37;;;;;;;820.20;427.50;;;;;;;;;;5094494;28;20023;-66
2022/10/19 00:36:03;;;;;;;697.55;364.63;;;;;;;;;;5094864;28;20020;-66
2022/10/19 00:38:29;;;;;;;728.20;405.33;;;;;;;;;;5094327;28;20032;-66
2022/10/19 00:40:55;;;;;;;794.75;452.83;;;;;;;;;;5094746;28;20016;-66
2022/10/19 00:43:23;;;;;;;781.88;453.25;;;;;;;;;;5094663;28;20054;-67
2022/10/19 00:45:49;;;;;;;764.55;423.33;;;;;;;;;;5094270;28;20099;-66
2022/10/19 00:48:20;;;;;;;850.85;452.30;;;;;;;;;;5094571;28;20022;-66
2022/10/19 00:50:47;;;;;;;817.47;437.63;;;;;;;;;;5094625;28;20086;-65
2022/10/19 00:53:13;;;;;;;846.85;463.00;;;;;;;;;;5094192;28;20036;-66
2022/10/19 00:55:40;;;;;;;825.58;463.67;;;;;;;;;;5094720;28;20066;-66
2022/10/19 00:58:07;;;;;;;896.97;456.27;;;;;;;;;;5094127;28;20504;-66
2022/10/19 01:00:33;;;;;;;852.70;442.48;;;;;;;;;;5093967;28;20529;-66
2022/10/19 01:02:59;;;;;;;862.70;447.50;;;;;;;;;;5094255;28;20024;-66
2022/10/19 01:05:26;;;;;;;876.80;453.05;;;;;;;;;;5094279;28;20381;-66
2022/10/19 01:07:52;;;;;;;890.13;474.60;;;;;;;;;;5093302;28;20028;-66
2022/10/19 01:10:20;;;;;;;883.65;441.20;;;;;;;;;;5094345;28;20028;-66
2022/10/19 01:12:51;;;;;;;845.13;454.23;;;;;;;;;;5094060;28;20031;-66
2022/10/19 01:15:26;;;;;;;872.90;480.60;;;;;;;;;;5093747;28;20043;-66
2022/10/19 01:18:04;;;;;;;869.47;452.70;;;;;;;;;;5094020;28;20412;-66
2022/10/19 01:20:49;;;;;;;854.50;472.25;;;;;;;;;;5094074;28;20055;-66
2022/10/19 01:23:24;;;;;;;847.22;442.42;;;;;;;;;;5093916;28;20017;-66
2022/10/19 01:26:13;;;;;;;837.63;439.90;;;;;;;;;;5093866;28;20021;-66
2022/10/19 01:28:52;;;;;;;773.53;449.92;;;;;;;;;;5093508;28;20028;-66
2022/10/19 01:31:25;;;;;;;814.38;444.48;;;;;;;;;;5093867;28;20032;-66
2022/10/19 01:34:07;;;;;;;841.77;448.23;;;;;;;;;;5093827;28;20028;-66
2022/10/19 01:36:43;;;;;;;909.20;442.10;;;;;;;;;;5092323;28;20078;-66
2022/10/19 01:39:28;;;;;;;938.08;462.42;;;;;;;;;;5093878;28;20058;-66
2022/10/19 01:42:00;;;;;;;855.28;441.50;;;;;;;;;;5093300;28;20572;-66
2022/10/19 01:44:35;;;;;;;846.42;449.80;;;;;;;;;;5093576;28;20052;-66
2022/10/19 01:47:05;;;;;;;841.00;427.08;;;;;;;;;;5093652;28;20024;-66
2022/10/19 01:49:42;;;;;;;814.88;435.35;;;;;;;;;;5093680;28;20028;-66
2022/10/19 01:52:10;;;;;;;764.10;436.83;;;;;;;;;;5093854;28;20024;-66
2022/10/19 01:54:41;;;;;;;813.28;443.77;;;;;;;;;;5092248;28;20028;-66
2022/10/19 01:57:08;;;;;;;839.08;452.75;;;;;;;;;;5092986;28;20055;-65
2022/10/19 01:59:36;;;;;;;810.30;442.77;;;;;;;;;;5093378;28;20043;-66
2022/10/19 02:02:03;;;;;;;799.60;447.20;;;;;;;;;;5093428;28;20070;-66
2022/10/19 02:04:30;;;;;;;796.22;426.67;;;;;;;;;;5093112;28;20035;-66
2022/10/19 02:06:56;;;;;;;796.08;428.27;;;;;;;;;;5093399;28;20391;-66
2022/10/19 02:09:22;;;;;;;752.20;440.30;;;;;;;;;;5093714;28;20070;-66
2022/10/19 02:11:50;;;;;;;780.63;441.27;;;;;;;;;;5093013;28;20485;-66
2022/10/19 02:14:18;;;;;;;746.33;425.77;;;;;;;;;;5091998;28;20069;-65
2022/10/19 02:16:54;;;;;;;704.47;379.50;;;;;;;;;;5093313;28;20030;-66
2022/10/19 02:19:20;;;;;;;693.75;382.30;;;;;;;;;;5093862;28;20439;-66
2022/10/19 02:21:46;;;;;;;699.25;391.02;;;;;;;;;;5097936;28;20035;-66
2022/10/19 02:24:13;;;;;;;638.55;395.25;;;;;;;;;;5096964;28;20103;-66
2022/10/19 02:26:39;;;;;;;712.08;418.52;;;;;;;;;;5097453;28;20081;-66
2022/10/19 02:29:06;;;;;;;738.17;413.60;;;;;;;;;;5097265;28;20100;-66
2022/10/19 02:31:32;;;;;;;680.83;392.25;;;;;;;;;;5096794;28;20031;-66
2022/10/19 02:33:58;;;;;;;665.28;383.88;;;;;;;;;;5097174;28;20028;-66
2022/10/19 02:36:24;;;;;;;625.78;342.38;;;;;;;;;;5095945;28;20020;-66
2022/10/19 02:38:50;;;;;;;611.22;343.23;;;;;;;;;;5096612;28;20575;-66
2022/10/19 02:41:24;;;;;;;627.22;387.95;;;;;;;;;;5097037;28;20063;-66
2022/10/19 02:43:53;;;;;;;677.08;425.27;;;;;;;;;;5096976;28;20094;-67
2022/10/19 02:46:40;;;;;;;710.17;419.10;;;;;;;;;;5096811;28;20027;-66
2022/10/19 02:49:07;;;;;;;729.97;468.88;;;;;;;;;;5096979;28;20051;-65
2022/10/19 02:51:37;;;;;;;687.65;380.55;;;;;;;;;;5097184;28;20024;-66
2022/10/19 02:54:05;;;;;;;690.47;380.42;;;;;;;;;;5096420;28;20058;-66
2022/10/19 02:56:31;;;;;;;725.35;425.05;;;;;;;;;;5096873;28;20099;-66
2022/10/19 02:58:57;;;;;;;711.28;400.50;;;;;;;;;;5096462;28;20512;-66
2022/10/19 03:01:24;;;;;;;672.13;395.55;;;;;;;;;;5096317;28;20035;-66
2022/10/19 03:03:50;;;;;;;702.35;415.70;;;;;;;;;;5097475;28;20409;-66
2022/10/19 03:06:16;;;;;;;686.97;370.92;;;;;;;;;;5096152;28;20073;-66
2022/10/19 03:08:42;;;;;;;678.33;398.88;;;;;;;;;;5096622;28;20148;-66
2022/10/19 03:11:08;;;;;;;623.65;325.85;;;;;;;;;;5096472;28;20528;-66
2022/10/19 03:13:34;;;;;;;653.03;376.95;;;;;;;;;;5096024;28;20521;-66
2022/10/19 03:16:08;;;;;;;653.38;356.33;;;;;;;;;;5095101;28;20035;-66
2022/10/19 03:18:34;;;;;;;669.80;404.17;;;;;;;;;;5096398;28;20024;-66
2022/10/19 03:21:09;;;;;;;674.20;381.70;;;;;;;;;;5095901;28;20032;-66
2022/10/19 03:23:36;;;;;;;659.38;386.52;;;;;;;;;;5096213;28;20480;-66
2022/10/19 03:26:02;;;;;;;647.42;367.30;;;;;;;;;;5096302;28;20032;-66
2022/10/19 03:28:28;;;;;;;681.22;392.08;;;;;;;;;;5096140;28;20027;-66
2022/10/19 03:30:54;;;;;;;628.00;355.30;;;;;;;;;;5095670;28;20387;-66
2022/10/19 03:33:20;;;;;;;622.10;351.55;;;;;;;;;;5096009;28;20069;-66
2022/10/19 03:35:47;;;;;;;630.85;345.98;;;;;;;;;;5095922;28;20361;-65
2022/10/19 03:38:13;;;;;;;603.80;342.27;;;;;;;;;;5095853;28;20046;-66
2022/10/19 03:40:39;;;;;;;699.47;327.40;;;;;;;;;;5095979;28;20027;-66
2022/10/19 03:43:05;;;;;;;632.78;321.83;;;;;;;;;;5095481;28;20052;-66
2022/10/19 03:45:32;;;;;;;626.60;339.88;;;;;;;;;;5096120;28;20035;-66
2022/10/19 03:47:58;;;;;;;644.90;328.10;;;;;;;;;;5095800;28;20095;-66
2022/10/19 03:50:24;;;;;;;643.97;340.05;;;;;;;;;;5095343;28;20080;-66
2022/10/19 03:52:50;;;;;;;595.33;326.90;;;;;;;;;;5095714;28;20025;-65
2022/10/19 03:55:17;;;;;;;623.50;360.75;;;;;;;;;;5095360;28;20024;-66
2022/10/19 03:57:43;;;;;;;641.90;374.50;;;;;;;;;;5094106;28;20051;-65
2022/10/19 04:00:09;;;;;;;622.35;350.45;;;;;;;;;;5095553;28;20074;-66
2022/10/19 04:02:35;;;;;;;601.13;334.55;;;;;;;;;;5093769;28;20024;-65
2022/10/19 04:05:02;;;;;;;615.85;334.77;;;;;;;;;;5094140;28;20115;-65
2022/10/19 04:07:28;;;;;;;605.88;374.55;;;;;;;;;;5095871;28;20020;-65
2022/10/19 04:09:54;;;;;;;600.33;340.85;;;;;;;;;;5095188;28;20430;-66
2022/10/19 04:12:20;;;;;;;606.17;336.17;;;;;;;;;;5095262;28;20028;-66
2022/10/19 04:14:46;;;;;;;583.90;327.52;;;;;;;;;;5095187;28;20127;-65
2022/10/19 04:17:12;;;;;;;613.17;349.83;;;;;;;;;;5094907;28;20574;-65
2022/10/19 04:19:38;;;;;;;626.42;363.67;;;;;;;;;;5093732;28;20043;-66
2022/10/19 04:22:04;;;;;;;643.30;339.83;;;;;;;;;;5095344;28;20027;-65
2022/10/19 04:24:30;;;;;;;603.75;334.77;;;;;;;;;;5093357;28;20028;-66
2022/10/19 04:26:56;;;;;;;617.45;332.38;;;;;;;;;;5095126;28;20028;-66
2022/10/19 04:29:24;;;;;;;608.75;342.25;;;;;;;;;;5094927;28;20065;-65
2022/10/19 04:31:51;;;;;;;601.33;349.55;;;;;;;;;;5093173;28;20031;-65
2022/10/19 04:34:17;;;;;;;596.50;341.30;;;;;;;;;;5093468;28;20032;-66
2022/10/19 04:36:43;;;;;;;611.85;356.30;;;;;;;;;;5094808;28;20043;-66
2022/10/19 04:39:09;;;;;;;582.72;320.33;;;;;;;;;;5094269;28;20049;-66
2022/10/19 04:41:36;;;;;;;619.63;334.65;;;;;;;;;;5094272;28;20060;-66
2022/10/19 04:44:05;;;;;;;597.00;343.65;;;;;;;;;;5094247;28;20028;-66
2022/10/19 04:46:31;;;;;;;621.00;360.40;;;;;;;;;;5094250;28;20106;-66
2022/10/19 04:48:57;;;;;;;628.00;333.75;;;;;;;;;;5093326;28;20039;-66
2022/10/19 04:51:24;;;;;;;611.08;329.95;;;;;;;;;;5094521;28;20381;-66
2022/10/19 04:53:50;;;;;;;596.22;321.92;;;;;;;;;;5094098;28;20032;-66
2022/10/19 04:56:19;;;;;;;566.33;316.45;;;;;;;;;;5094588;28;20024;-66
2022/10/19 04:58:45;;;;;;;607.50;349.00;;;;;;;;;;5094058;28;20097;-66
2022/10/19 05:01:21;;;;;;;614.03;328.05;;;;;;;;;;5094389;28;20073;-66
2022/10/19 05:03:47;;;;;;;615.28;328.63;;;;;;;;;;5094536;28;20024;-66
2022/10/19 05:06:14;;;;;;;621.80;347.60;;;;;;;;;;5093853;28;20016;-66
2022/10/19 05:08:41;;;;;;;613.75;351.60;;;;;;;;;;5094095;28;20020;-66
2022/10/19 05:11:15;;;;;;;614.13;325.80;;;;;;;;;;5094293;28;20016;-66
2022/10/19 05:13:42;;;;;;;619.90;344.50;;;;;;;;;;5093732;28;20404;-66
2022/10/19 05:16:10;;;;;;;614.70;342.20;;;;;;;;;;5090950;28;20528;-65
2022/10/19 05:18:36;;;;;;;611.80;355.23;;;;;;;;;;5087128;28;20490;-66
2022/10/19 05:21:04;;;;;;;607.08;340.75;;;;;;;;;;5091845;28;20031;-66
2022/10/19 05:23:30;;;;;;;606.45;340.92;;;;;;;;;;5090429;28;20023;-65
2022/10/19 05:26:10;;;;;;;563.05;315.73;;;;;;;;;;5082941;28;20036;-66
2022/10/19 05:28:36;;;;;;;573.05;332.58;;;;;;;;;;5091953;28;20384;-67
2022/10/19 05:31:05;;;;;;;587.80;341.90;;;;;;;;;;5090887;28;20110;-66
2022/10/19 05:33:31;;;;;;;615.45;333.05;;;;;;;;;;5092158;28;20574;-66
2022/10/19 05:35:57;;;;;;;597.90;322.58;;;;;;;;;;5090809;28;20035;-66
2022/10/19 05:38:23;;;;;;;589.58;350.00;;;;;;;;;;5090396;28;20051;-66
2022/10/19 05:40:50;;;;;;;608.15;359.98;;;;;;;;;;5092553;28;20424;-66
2022/10/19 05:43:16;;;;;;;607.05;329.63;;;;;;;;;;5092757;28;20024;-66
2022/10/19 05:45:42;;;;;;;846.65;329.25;;;;;;;;;;5093257;28;20078;-66
2022/10/19 05:48:08;;;;;;;780.13;349.17;;;;;;;;;;5090714;28;20516;-67
2022/10/19 05:50:34;;;;;;;830.45;354.08;;;;;;;;;;5089327;28;20032;-67
2022/10/19 05:53:00;;;;;;;807.22;336.73;;;;;;;;;;5085085;28;20116;-66
2022/10/19 05:55:26;;;;;;;812.30;349.55;;;;;;;;;;5084420;28;20120;-67
2022/10/19 05:57:52;;;;;;;826.95;361.08;;;;;;;;;;5089398;28;20056;-67
2022/10/19 06:00:18;;;;;;;812.13;358.75;;;;;;;;;;5089985;28;20078;-67
2022/10/19 06:02:45;;;;;;;807.55;356.00;;;;;;;;;;5088240;28;20115;-66
2022/10/19 06:05:11;;;;;;;787.08;351.45;;;;;;;;;;5089530;28;20020;-66
2022/10/19 06:07:37;;;;;;;788.78;364.15;;;;;;;;;;5090745;28;20032;-67
2022/10/19 06:10:03;;;;;;;814.25;350.42;;;;;;;;;;5088842;28;20036;-66
2022/10/19 06:12:29;;;;;;;802.53;359.00;;;;;;;;;;5090576;28;20028;-66
2022/10/19 06:14:55;;;;;;;809.15;353.45;;;;;;;;;;5090761;28;20060;-67
2022/10/19 06:17:22;;;;;;;796.38;363.15;;;;;;;;;;5090590;28;20392;-67
2022/10/19 06:19:48;;;;;;;799.88;349.38;;;;;;;;;;5090599;28;20055;-67
2022/10/19 06:22:14;;;;;;;833.20;352.38;;;;;;;;;;5078226;28;20063;-66
2022/10/19 06:24:40;;;;;;;849.53;362.23;;;;;;;;;;5079605;28;20036;-68
2022/10/19 06:27:06;;;;;;;650.67;298.25;;;;;;;;;;5090068;28;20115;-68
2022/10/19 06:29:32;;;;;;;735.08;324.05;;;;;;;;;;5090369;28;20036;-68
2022/10/19 06:31:59;;;;;;;851.50;358.38;;;;;;;;;;5091938;28;20020;-68
2022/10/19 06:34:25;;;;;;;864.25;343.38;;;;;;;;;;5079670;28;20544;-67
2022/10/19 06:36:51;;;;;;;858.42;347.38;;;;;;;;;;5091949;28;20518;-67
2022/10/19 06:39:17;;;;;;;851.00;352.83;;;;;;;;;;5090246;28;20063;-67
2022/10/19 06:41:43;;;;;;;844.53;339.75;;;;;;;;;;5088131;28;20028;-67
2022/10/19 06:44:09;;;;;;;836.38;354.55;;;;;;;;;;5091569;28;20080;-67
2022/10/19 06:46:35;;;;;;;817.70;349.45;;;;;;;;;;5090523;28;20073;-67
2022/10/19 06:49:02;;;;;;;821.45;351.45;;;;;;;;;;5092192;28;20477;-68
2022/10/19 06:51:29;;;;;;;884.33;335.75;;;;;;;;;;5090557;28;20476;-67
2022/10/19 06:53:55;;;;;;;821.80;350.13;;;;;;;;;;5089916;28;20020;-66
2022/10/19 06:56:23;;;;;;;646.38;333.38;;;;;;;;;;5089700;28;20036;-65
2022/10/19 06:58:49;;;;;;;621.22;309.13;;;;;;;;;;5091225;28;20040;-65
2022/10/19 07:01:15;;;;;;;643.22;324.80;;;;;;;;;;5090377;28;20074;-65
2022/10/19 07:03:44;;;;;;;679.95;339.05;;;;;;;;;;5090847;28;20036;-67
2022/10/19 07:06:11;;;;;;;563.33;297.65;;;;;;;;;;5093313;28;20020;-65
2022/10/19 07:08:38;;;;;;;558.97;296.40;;;;;;;;;;5095664;28;20032;-65
2022/10/19 07:11:06;;;;;;;580.83;305.45;;;;;;;;;;5095689;28;20069;-64
2022/10/19 07:13:32;;;;;;;581.78;311.35;;;;;;;;;;5094116;28;20039;-65
2022/10/19 07:16:00;;;;;;;533.00;293.38;;;;;;;;;;5095337;28;20035;-65
2022/10/19 07:18:26;;;;;;;652.28;337.45;;;;;;;;;;5095455;28;20026;-66
2022/10/19 07:21:00;;;;;;;659.05;377.73;;;;;;;;;;5093496;28;20036;-66
2022/10/19 07:23:27;;;;;;;664.65;370.63;;;;;;;;;;5093283;28;20123;-65
2022/10/19 07:25:58;;;;;;;612.22;338.77;;;;;;;;;;5093266;28;20105;-66
2022/10/19 07:28:24;;;;;;;627.17;330.95;;;;;;;;;;5093767;28;20084;-66
2022/10/19 07:30:50;;;;;;;644.58;314.17;;;;;;;;;;5091379;28;20103;-66
2022/10/19 07:33:17;;;;;;;570.30;320.30;;;;;;;;;;5093559;28;20024;-66
2022/10/19 07:35:43;;;;;;;520.03;295.95;;;;;;;;;;5094101;28;20020;-65
2022/10/19 07:38:09;;;;;;;434.73;278.35;;;;;;;;;;5094844;28;20484;-66
2022/10/19 07:40:35;;;;;;;368.90;259.13;;;;;;;;;;5094539;28;20093;-65
2022/10/19 07:43:02;;;;;;;308.42;235.25;;;;;;;;;;5094827;28;20032;-66
2022/10/19 07:45:28;;;;;;;295.73;232.88;;;;;;;;;;5094168;28;20044;-65
2022/10/19 07:47:55;;;;;;;266.58;220.88;;;;;;;;;;5093357;28;20680;-65
2022/10/19 07:50:23;;;;;;;270.50;222.13;;;;;;;;;;5094047;28;20024;-66
2022/10/19 07:52:51;;;;;;;312.88;236.48;;;;;;;;;;5094713;28;20065;-65
2022/10/19 07:55:17;;;;;;;296.83;229.25;;;;;;;;;;5094733;28;20058;-67
2022/10/19 07:57:46;;;;;;;210.23;188.43;;;;;;;;;;5092919;28;20040;-66
2022/10/19 08:00:12;;;;;;;198.23;178.73;;;;;;;;;;5094756;28;20027;-67
2022/10/19 08:02:38;;;;;;;198.93;178.88;;;;;;;;;;5093998;28;20110;-67
2022/10/19 08:05:05;;;;;;;172.25;156.85;;;;;;;;;;5095170;28;20028;-67
2022/10/19 08:07:32;;;;;;;547.83;303.45;;;;;;;;;;5094694;28;20020;-68
2022/10/19 08:09:59;;;;;;;646.47;341.10;;;;;;;;;;5093808;28;20028;-68
2022/10/19 08:12:25;;;;;;;673.85;333.35;;;;;;;;;;5093954;28;20020;-67
2022/10/19 08:17:52;;;;;;;789.45;351.40;;;;;;;;;;5123896;27;20381;-67
2022/10/19 08:20:18;;;;;;;294.35;188.57;;;;;;;;;;5108934;28;20108;-67
2022/10/19 08:22:45;;;;;;;609.72;319.88;;;;;;;;;;5108346;28;20136;-66
2022/10/19 08:25:11;;;;;;;557.80;297.60;;;;;;;;;;5110781;28;20023;-67
2022/10/19 08:29:17;;;;;;;393.88;245.30;;;;;;;;;;5124640;27;20365;-67
2022/10/19 08:32:36;;;;;;;271.15;222.13;;;;;;;;;;5117571;27;20885;-66
2022/10/19 08:35:02;;;;;;;604.78;324.05;;;;;;;;;;5107865;28;20484;-68
2022/10/19 08:37:28;;;;;;;578.35;304.13;;;;;;;;;;5107365;28;20020;-67
2022/10/19 08:40:17;;;;;;;801.15;353.80;;;;;;;;;;5123946;27;20378;-66
2022/10/19 08:43:40;;;;;;;749.83;358.98;;;;;;;;;;5124994;27;20377;-67
2022/10/19 08:46:25;;;;;;;383.63;235.77;;;;;;;;;;5122816;27;20441;-67
2022/10/19 08:48:51;;;;;;;402.02;243.00;;;;;;;;;;5107074;28;20031;-67
2022/10/19 08:52:05;;;;;;;503.48;282.08;;;;;;;;;;5121832;27;20403;-69
2022/10/19 08:55:46;;;;;;;;;;;;;;;;;;5121290;27;20738;-68
2022/10/19 08:58:12;;;;;;;;;;;;;;;;;;5105290;28;19908;-67
2022/10/19 09:03:23;;;;;;;944.78;531.67;;;;;;;;;;5121853;27;20515;-68
2022/10/19 09:05:49;;;;;;;1048.93;547.35;;;;;;;;;;5104998;28;20380;-69
2022/10/19 09:08:16;;;;;;;1031.55;530.58;;;;;;;;;;5105881;28;20020;-69
2022/10/19 09:10:43;;;;;;;865.58;496.52;;;;;;;;;;5106568;28;20027;-68
2022/10/19 09:13:22;;;;;;;757.20;465.02;;;;;;;;;;5106342;28;20026;-67
2022/10/19 09:18:29;;;;;;;745.72;387.45;;;;;;;;;;5125494;27;20369;-70
2022/10/19 09:21:00;;;;;;;310.75;221.82;;;;;;;;;;5109875;28;20032;-69
2022/10/19 09:25:12;;;;;;;573.67;352.33;;;;;;;;;;5163059;27;20384;-66
2022/10/19 09:27:38;;;;;;;;;;;;;;;;;;5129129;28;20039;-66
2022/10/19 09:30:06;;;;;;;520.03;290.65;;;;;;;;;;5130071;28;20761;-66
2022/10/19 09:32:32;;;;;;;;;;;;;;;;;;5131019;27;20028;-67
2022/10/19 09:39:21;;;;;;;559.58;291.42;;;;;;;;;;5122032;27;20726;-67
2022/10/19 09:41:50;;;;;;;653.47;288.02;;;;;;;;;;5103022;28;20403;-67
2022/10/19 09:44:16;;;;;;;;;;;;;;;;;;5105263;28;20321;-67
2022/10/19 09:46:42;;;;;;;;;;;;;;;;;;5100609;28;20433;-68
2022/10/19 09:49:08;;;;;;;404.33;240.10;;;;;;;;;;5105335;28;20380;-67
2022/10/19 09:52:25;;;;;;;;;;;;;;;;;;5125090;27;20400;-66
2022/10/19 09:55:21;;;;;;;;;;;;;;;;;;5129413;27;20327;-67
2022/10/19 09:57:48;;;;;;;554.80;282.60;;;;;;;;;;5129494;28;20430;-67
2022/10/19 10:00:53;;;;;;;457.92;253.93;;;;;;;;;;5111800;27;20378;-67
2022/10/19 10:03:28;;;;;;;276.00;204.27;;;;;;;;;;5086542;28;20032;-68
2022/10/19 10:10:37;;;;;;;347.67;233.40;;;;;;;;;;5090825;27;20375;-67
2022/10/19 10:14:16;;;;;;;;;;;;;;;;;;5122983;27;20884;-66
2022/10/19 10:16:42;;;;;;;210.32;186.50;;;;;;;;;;5093693;28;20383;-67
2022/10/19 10:19:09;;;;;;;;;;;;;;;;;;5088868;28;20370;-66
2022/10/19 10:21:35;;;;;;;;;;;;;;;;;;5087820;28;19915;-67
2022/10/19 10:24:01;;;;;;;;;;;;;;;;;;5088036;28;20374;-65
2022/10/19 10:26:27;;;;;;;;;;;;;;;;;;5088143;28;19904;-66
2022/10/19 10:30:39;;;;;;;;;;;;;;;;;;5124683;27;20373;-66
2022/10/19 10:34:38;;;;;;;;;;;;;;;;;;5123565;27;20430;-66
2022/10/19 10:37:07;;;;;;;267.30;214.63;;;;;;;;;;5103915;28;20394;-67
2022/10/19 10:39:39;;;;;;;315.92;237.30;;;;;;;;;;5095786;28;20494;-67
2022/10/19 10:42:05;;;;;;;;;;;;;;;;;;5107708;28;20027;-66
2022/10/19 10:44:33;;;;;;;;;;;;;;;;;;5104335;28;20023;-65
2022/10/19 10:46:59;;;;;;;;;;;;;;;;;;5096915;28;19970;-66
2022/10/19 10:49:25;;;;;;;;;;;;;;;;;;5102862;28;19943;-65
2022/10/19 10:51:51;;;;;;;;;;;;;;;;;;5095862;28;19904;-66
2022/10/19 10:54:17;;;;;;;;;;;;;;;;;;5089497;28;19920;-67
2022/10/19 10:59:34;;;;;;;774.40;320.73;;;;;;;;;;5095913;27;20375;-67
2022/10/19 11:02:11;;;;;;;484.48;291.90;;;;;;;;;;5063552;28;20261;-65
2022/10/19 11:04:39;;;;;;;415.88;266.25;;;;;;;;;;5061616;28;20037;-67
2022/10/19 11:08:41;;;;;;;627.10;313.35;;;;;;;;;;5120891;27;20396;-65
2022/10/19 11:11:07;;;;;;;542.85;300.85;;;;;;;;;;5097199;28;20035;-65
2022/10/19 11:13:38;;;;;;;546.67;310.33;;;;;;;;;;5103390;28;20028;-66
2022/10/19 11:18:18;;;;;;;488.35;282.88;;;;;;;;;;5100074;27;20719;-67
2022/10/19 11:21:08;;;;;;;483.88;292.77;;;;;;;;;;5075843;28;20028;-65
2022/10/19 11:23:40;;;;;;;371.80;255.80;;;;;;;;;;5073766;28;20032;-67
2022/10/19 11:27:52;;;;;;;533.35;292.88;;;;;;;;;;5113902;27;20378;-65
2022/10/19 11:30:19;;;;;;;441.98;268.52;;;;;;;;;;5104494;28;20494;-65
2022/10/19 11:32:52;;;;;;;430.35;260.13;;;;;;;;;;5109546;28;20124;-65
2022/10/19 11:37:10;;;;;;;751.40;330.92;;;;;;;;;;5086640;27;21161;-66
2022/10/19 11:39:48;;;;;;;563.85;308.88;;;;;;;;;;5050106;28;20029;-65
2022/10/19 11:42:34;;;;;;;613.47;316.70;;;;;;;;;;5049478;28;20025;-65
2022/10/19 11:45:18;;;;;;;652.05;329.55;;;;;;;;;;5047684;28;20401;-66
2022/10/19 11:47:52;;;;;;;647.78;320.77;;;;;;;;;;5046097;28;20468;-65
2022/10/19 11:50:27;;;;;;;600.03;322.95;;;;;;;;;;5044779;28;20025;-66
2022/10/19 11:52:52;;;;;;;;;;;;;;;;;;5044561;28;20033;-65
2022/10/19 11:55:18;;;;;;;;;;;;;;;;;;5046133;28;19967;-66
2022/10/19 11:57:44;;;;;;;;;;;;;;;;;;5043133;28;19905;-66
2022/10/19 12:00:10;;;;;;;;;;;;;;;;;;5049983;28;19916;-66
2022/10/19 12:02:36;;;;;;;;;;;;;;;;;;5049025;28;19905;-66
2022/10/19 12:05:02;;;;;;;;;;;;;;;;;;5048825;28;19913;-65
2022/10/19 12:07:28;;;;;;;;;;;;;;;;;;5047568;28;19916;-66
2022/10/19 12:09:54;;;;;;;;;;;;;;;;;;5049620;28;19946;-66
2022/10/19 12:12:20;;;;;;;;;;;;;;;;;;5049107;28;19916;-66
2022/10/19 12:14:46;;;;;;;;;;;;;;;;;;5049800;28;19952;-67
2022/10/19 12:17:12;;;;;;;;;;;;;;;;;;5048231;28;19932;-67
2022/10/19 12:20:29;;;;;;;669.47;520.63;;;;;;;;;;5120634;27;20378;-67
2022/10/19 12:22:57;;;;;;;667.00;445.95;;;;;;;;;;5107742;28;20027;-66
2022/10/19 12:25:23;;;;;;;643.10;386.17;;;;;;;;;;5108376;28;20055;-66
2022/10/19 12:27:50;;;;;;;662.30;371.10;;;;;;;;;;5099124;28;20039;-66
2022/10/19 12:30:19;;;;;;;674.63;392.65;;;;;;;;;;5104639;28;20515;-66
2022/10/19 12:32:48;;;;;;;672.20;375.38;;;;;;;;;;5106432;28;20023;-67
2022/10/19 12:35:17;;;;;;;655.85;371.10;;;;;;;;;;5108226;28;20103;-66
2022/10/19 12:37:47;;;;;;;652.90;381.98;;;;;;;;;;5108100;28;20502;-66
2022/10/19 12:40:13;;;;;;;643.95;380.33;;;;;;;;;;5108529;28;20043;-66
2022/10/19 12:44:14;;;;;;;669.25;331.60;;;;;;;;;;5124294;27;20388;-66
2022/10/19 12:46:43;;;;;;;709.78;326.55;;;;;;;;;;5109094;28;20035;-66
2022/10/19 12:49:27;;;;;;;703.35;330.45;;;;;;;;;;5108873;28;20215;-66
2022/10/19 12:52:00;;;;;;;669.47;322.23;;;;;;;;;;5108275;28;20020;-66
2022/10/19 12:54:28;;;;;;;702.83;319.23;;;;;;;;;;5109570;28;20023;-66
2022/10/19 12:56:55;;;;;;;680.38;337.38;;;;;;;;;;5110050;28;20100;-66
2022/10/19 12:59:31;;;;;;;638.75;338.90;;;;;;;;;;5110449;28;20418;-66
2022/10/19 13:01:59;;;;;;;606.85;324.38;;;;;;;;;;5110558;28;20028;-66
2022/10/19 13:04:25;;;;;;;616.38;330.70;;;;;;;;;;5108900;28;20032;-67
2022/10/19 13:06:59;;;;;;;611.97;316.08;;;;;;;;;;5109001;28;20020;-67
2022/10/19 13:09:38;;;;;;;617.67;323.02;;;;;;;;;;5110611;28;20103;-66
2022/10/19 13:12:13;;;;;;;576.38;311.58;;;;;;;;;;5109985;28;20023;-67
2022/10/19 13:14:39;;;;;;;566.10;319.45;;;;;;;;;;5110308;28;20095;-67
2022/10/19 13:17:06;;;;;;;578.10;323.60;;;;;;;;;;5110471;28;20357;-65
2022/10/19 13:19:33;;;;;;;549.47;309.15;;;;;;;;;;5110212;28;20024;-67
2022/10/19 13:21:59;;;;;;;515.28;301.85;;;;;;;;;;5110496;28;20032;-66
2022/10/19 13:24:25;;;;;;;514.50;308.23;;;;;;;;;;5110562;28;20024;-66
2022/10/19 13:28:57;;;;;;;619.80;389.85;;;;;;;;;;5127761;27;20369;-66
2022/10/19 13:31:25;;;;;;;712.92;314.75;;;;;;;;;;5111259;28;20054;-66
2022/10/19 13:33:52;;;;;;;699.92;330.50;;;;;;;;;;5110790;28;20035;-66
2022/10/19 13:36:18;;;;;;;566.95;323.70;;;;;;;;;;5111227;28;20107;-66
2022/10/19 13:39:06;;;;;;;537.53;309.52;;;;;;;;;;5111072;28;20030;-67
2022/10/19 13:41:38;;;;;;;584.15;325.17;;;;;;;;;;5110771;28;20030;-66
2022/10/19 13:44:14;;;;;;;574.78;314.13;;;;;;;;;;5108761;28;20024;-66
2022/10/19 13:46:41;;;;;;;573.92;327.15;;;;;;;;;;5110589;28;20571;-65
2022/10/19 13:49:25;;;;;;;570.53;313.38;;;;;;;;;;5110984;28;20102;-66
2022/10/19 13:52:10;;;;;;;577.20;324.92;;;;;;;;;;5110635;28;20020;-65
2022/10/19 13:54:42;;;;;;;579.97;327.60;;;;;;;;;;5110009;28;20027;-67
2022/10/19 13:57:20;;;;;;;582.10;327.80;;;;;;;;;;5110633;28;20020;-66
2022/10/19 14:00:00;;;;;;;583.38;327.75;;;;;;;;;;5110763;28;20059;-66
2022/10/19 14:02:39;;;;;;;585.75;325.10;;;;;;;;;;5108942;28;20329;-66
2022/10/19 14:05:05;;;;;;;583.70;324.85;;;;;;;;;;5110692;28;20026;-66
2022/10/19 14:08:01;;;;;;;551.08;323.50;;;;;;;;;;5110099;28;20031;-66
2022/10/19 14:10:27;;;;;;;585.15;328.58;;;;;;;;;;5110619;28;20035;-66
2022/10/19 14:12:54;;;;;;;597.13;318.25;;;;;;;;;;5110616;28;20020;-66
2022/10/19 14:15:30;;;;;;;614.20;324.73;;;;;;;;;;5110105;28;20077;-67
2022/10/19 14:17:57;;;;;;;622.92;329.90;;;;;;;;;;5110438;28;20031;-66
2022/10/19 14:20:31;;;;;;;590.78;311.85;;;;;;;;;;5110160;28;20132;-67
2022/10/19 14:22:58;;;;;;;596.47;328.55;;;;;;;;;;5109695;28;20027;-65
2022/10/19 14:25:28;;;;;;;583.70;328.00;;;;;;;;;;5110250;28;20098;-66
2022/10/19 14:28:04;;;;;;;561.22;318.20;;;;;;;;;;5109972;28;20123;-66
2022/10/19 14:30:32;;;;;;;559.75;319.15;;;;;;;;;;5109812;28;20052;-66
2022/10/19 14:32:59;;;;;;;561.05;318.83;;;;;;;;;;5110367;28;20032;-66
2022/10/19 14:35:30;;;;;;;556.65;323.35;;;;;;;;;;5110102;28;20469;-67
2022/10/19 14:37:56;;;;;;;610.92;327.15;;;;;;;;;;5110142;28;20027;-66
2022/10/19 14:40:22;;;;;;;584.20;321.05;;;;;;;;;;5096051;28;20361;-65
2022/10/19 14:42:49;;;;;;;551.97;315.73;;;;;;;;;;5095926;28;20035;-65
2022/10/19 14:45:23;;;;;;;527.20;310.30;;;;;;;;;;5094605;28;20077;-65
2022/10/19 14:47:56;;;;;;;529.80;312.38;;;;;;;;;;5096018;28;20039;-65
2022/10/19 14:50:26;;;;;;;487.40;300.17;;;;;;;;;;5095963;28;20020;-65
2022/10/19 14:52:56;;;;;;;465.63;296.92;;;;;;;;;;5096201;28;20028;-65
2022/10/19 14:55:22;;;;;;;445.15;291.80;;;;;;;;;;5095970;28;20051;-65
2022/10/19 14:57:51;;;;;;;430.15;278.67;;;;;;;;;;5095689;28;20089;-65
2022/10/19 15:00:19;;;;;;;403.45;267.13;;;;;;;;;;5095984;28;20024;-66